Time;durP1;ratioP1;P1;durP2;ratioP2;P2;SDS_P1;SDS_P2;PMS_P1;PMS_P2;Temp;Humidity;BMP_temperature;BMP_pressure;BME280_temperature;BME280_humidity;BME280_pressure;Samples;Min_cycle;Max_cycle;Signal;HPM_P1;HPM_P2
2022/09/02 00:01:26;;;;;;;5.90;3.60;;;13.40;99.90;;;13.07;100.00;97318.66;4967945;28;20113;-64
2022/09/02 00:03:59;;;;;;;3.85;3.30;;;13.40;99.90;;;13.06;100.00;97322.22;4966010;28;20193;-64
2022/09/02 00:06:26;;;;;;;4.18;3.67;;;13.40;99.90;;;13.05;100.00;97315.22;4975605;28;20030;-64
2022/09/02 00:08:52;;;;;;;6.38;4.13;;;13.40;99.90;;;13.03;100.00;97307.34;4976088;28;20105;-63
2022/09/02 00:11:23;;;;;;;6.28;3.72;;;13.40;99.90;;;13.04;100.00;97313.50;4973380;28;20230;-64
2022/09/02 00:13:50;;;;;;;7.60;3.92;;;13.40;99.90;;;13.01;100.00;97311.84;4968779;28;20034;-64
2022/09/02 00:16:17;;;;;;;4.68;3.80;;;13.30;99.90;;;12.89;100.00;97294.75;4968907;28;20049;-64
2022/09/02 00:18:43;;;;;;;4.70;3.58;;;13.30;99.90;;;12.95;100.00;97304.19;4967199;28;20688;-64
2022/09/02 00:21:12;;;;;;;4.53;3.40;;;13.30;99.90;;;13.01;100.00;97303.03;4969461;28;20486;-64
2022/09/02 00:23:39;;;;;;;4.10;3.15;;;13.30;99.90;;;12.99;100.00;97297.81;4960776;28;20043;-64
2022/09/02 00:26:06;;;;;;;3.83;3.53;;;13.30;99.90;;;12.98;100.00;97298.75;4947263;28;20066;-64
2022/09/02 00:28:31;;;;;;;3.22;2.92;;;13.30;99.90;;;12.95;100.00;97289.16;4967121;28;20766;-64
2022/09/02 00:30:57;;;;;;;4.47;3.80;;;13.30;99.90;;;12.95;100.00;97298.91;4965760;28;20045;-64
2022/09/02 00:33:23;;;;;;;4.93;3.67;;;13.20;99.90;;;12.86;100.00;97278.19;4966751;28;20030;-64
2022/09/02 00:35:49;;;;;;;4.05;3.65;;;13.20;99.90;;;12.89;100.00;97284.19;4971148;28;20180;-64
2022/09/02 00:38:15;;;;;;;3.88;3.45;;;13.20;99.90;;;12.89;100.00;97283.31;4970100;28;20092;-64
2022/09/02 00:40:48;;;;;;;4.25;3.45;;;13.20;99.90;;;12.85;100.00;97277.31;4967278;28;20030;-64
2022/09/02 00:43:42;;;;;;;4.40;3.22;;;13.20;99.90;;;12.78;100.00;97275.91;4952927;28;20034;-64
2022/09/02 00:46:09;;;;;;;3.78;3.28;;;13.10;99.90;;;12.75;100.00;97270.75;4967919;28;20240;-64
2022/09/02 00:48:42;;;;;;;4.63;3.35;;;13.10;99.90;;;12.71;100.00;97275.34;4952889;28;20121;-64
2022/09/02 00:51:10;;;;;;;4.00;3.40;;;13.00;99.90;;;12.69;100.00;97271.91;4966769;28;20121;-64
2022/09/02 00:53:40;;;;;;;4.38;3.10;;;13.00;99.90;;;12.66;100.00;97274.69;4947004;28;20049;-64
2022/09/02 00:56:11;;;;;;;4.32;3.08;;;13.00;99.90;;;12.63;100.00;97282.75;4941486;28;20026;-64
2022/09/02 00:58:38;;;;;;;4.38;3.10;;;13.00;99.90;;;12.63;100.00;97273.97;4958549;28;20042;-64
2022/09/02 01:01:04;;;;;;;3.83;3.30;;;13.00;99.90;;;12.63;100.00;97271.31;4964274;28;20136;-64
2022/09/02 01:03:32;;;;;;;5.88;3.30;;;13.00;99.90;;;12.60;100.00;97270.53;4958171;28;20120;-64
2022/09/02 01:06:01;;;;;;;3.58;2.83;;;13.00;99.90;;;12.58;100.00;97276.84;4946976;28;20038;-64
2022/09/02 01:08:35;;;;;;;5.03;3.35;;;12.90;99.90;;;12.61;100.00;97274.03;4965465;28;20035;-64
2022/09/02 01:11:03;;;;;;;3.15;2.85;;;12.90;99.90;;;12.58;100.00;97284.78;4947413;28;20030;-64
2022/09/02 01:13:36;;;;;;;3.95;3.28;;;12.90;99.90;;;12.57;100.00;97273.31;4943544;28;20096;-64
2022/09/02 01:16:19;;;;;;;6.13;3.00;;;12.90;99.90;;;12.57;100.00;97280.41;4960444;28;20080;-64
2022/09/02 01:18:51;;;;;;;3.97;3.10;;;12.90;99.90;;;12.57;100.00;97277.78;4942930;28;20142;-65
2022/09/02 01:21:17;;;;;;;4.93;2.97;;;12.90;99.90;;;12.56;100.00;97282.22;4944066;28;20741;-64
2022/09/02 01:23:44;;;;;;;4.78;3.20;;;12.90;99.90;;;12.57;100.00;97288.34;4955461;28;20065;-65
2022/09/02 01:26:10;;;;;;;3.65;3.05;;;12.90;99.90;;;12.55;100.00;97282.28;4943313;28;20039;-65
2022/09/02 01:28:36;;;;;;;3.38;3.00;;;12.90;99.90;;;12.51;100.00;97275.44;4968792;28;20445;-65
2022/09/02 01:31:02;;;;;;;3.50;2.80;;;12.90;99.90;;;12.51;100.00;97278.06;4964647;28;20030;-64
2022/09/02 01:33:28;;;;;;;4.00;2.90;;;12.90;99.90;;;12.54;100.00;97277.91;4962499;28;20066;-64
2022/09/02 01:35:54;;;;;;;3.53;2.58;;;12.90;99.90;;;12.57;100.00;97283.91;4950214;28;20510;-65
2022/09/02 01:38:21;;;;;;;4.30;2.92;;;12.90;99.90;;;12.57;100.00;97280.41;4961117;28;20035;-65
2022/09/02 01:40:47;;;;;;;3.72;2.70;;;12.90;99.90;;;12.56;100.00;97271.63;4963415;28;23933;-65
2022/09/02 01:43:17;;;;;;;3.63;2.65;;;12.90;99.90;;;12.57;100.00;97283.91;4974713;28;20031;-65
2022/09/02 01:45:46;;;;;;;3.95;2.63;;;12.90;99.90;;;12.56;100.00;97281.31;4970296;28;20074;-65
2022/09/02 01:48:13;;;;;;;3.60;2.25;;;12.90;99.90;;;12.54;100.00;97278.78;4961261;28;20030;-65
2022/09/02 01:50:44;;;;;;;3.30;2.63;;;12.90;99.90;;;12.51;100.00;97280.72;4969944;28;20133;-64
2022/09/02 01:53:10;;;;;;;3.05;2.55;;;12.90;99.90;;;12.50;100.00;97281.63;4962728;28;20027;-65
2022/09/02 01:55:36;;;;;;;3.40;2.53;;;12.90;99.90;;;12.48;100.00;97279.06;4949381;28;20035;-65
2022/09/02 01:58:02;;;;;;;4.07;2.60;;;12.90;99.90;;;12.46;100.00;97272.13;4960809;28;20023;-65
2022/09/02 02:00:28;;;;;;;3.10;2.78;;;12.80;99.90;;;12.44;100.00;97277.50;4971477;28;20038;-64
2022/09/02 02:02:55;;;;;;;5.85;2.88;;;12.80;99.90;;;12.39;100.00;97267.09;4947640;28;20433;-64
2022/09/02 02:05:21;;;;;;;3.67;2.78;;;12.80;99.90;;;12.36;100.00;97277.84;4969427;28;20201;-64
2022/09/02 02:07:47;;;;;;;4.22;2.65;;;12.70;99.90;;;12.29;100.00;97276.41;4950005;28;20032;-64
2022/09/02 02:10:15;;;;;;;3.97;2.70;;;12.70;99.90;;;12.25;100.00;97282.75;4965917;28;21892;-64
2022/09/02 02:12:42;;;;;;;2.75;2.53;;;12.60;99.90;;;12.18;100.00;97276.03;4954175;28;20092;-64
2022/09/02 02:15:12;;;;;;;7.80;2.92;;;12.60;99.90;;;12.19;100.00;97275.13;4958587;28;20041;-64
2022/09/02 02:17:38;;;;;;;3.58;2.60;;;12.60;99.90;;;12.16;100.00;97272.59;4964420;28;20030;-64
2022/09/02 02:20:07;;;;;;;3.75;2.58;;;12.50;99.90;;;12.14;100.00;97277.94;4989804;23;20048;-49
2022/09/02 02:22:33;;;;;;;4.85;2.78;;;12.50;99.90;;;12.10;100.00;97271.09;4984974;28;20061;-48
2022/09/02 02:24:59;;;;;;;2.65;2.45;;;12.40;99.90;;;12.09;100.00;97277.28;4985960;28;20608;-50
2022/09/02 02:27:24;;;;;;;3.20;2.22;;;12.40;99.90;;;12.08;100.00;97272.06;4987780;28;20101;-48
2022/09/02 02:29:51;;;;;;;3.55;2.30;;;12.40;99.90;;;12.05;100.00;97275.72;4984842;28;20038;-50
2022/09/02 02:32:17;;;;;;;2.78;2.13;;;12.40;99.90;;;11.85;100.00;97244.88;4974887;28;20109;-48
2022/09/02 02:34:44;;;;;;;3.08;2.30;;;12.30;99.90;;;11.95;100.00;97264.72;4975480;28;20045;-50
2022/09/02 02:37:11;;;;;;;3.05;2.53;;;12.30;99.90;;;11.93;100.00;97263.06;4968171;28;20330;-50
2022/09/02 02:39:41;;;;;;;4.03;2.63;;;12.30;99.90;;;11.92;100.00;97267.50;4976649;28;20026;-51
2022/09/02 02:42:07;;;;;;;2.65;2.20;;;12.30;99.90;;;11.90;100.00;97258.78;4971607;28;20038;-51
2022/09/02 02:44:33;;;;;;;3.00;2.38;;;12.20;99.90;;;11.89;100.00;97264.94;4972755;28;20034;-49
2022/09/02 02:47:00;;;;;;;2.97;2.42;;;12.20;99.90;;;11.85;100.00;97252.81;4974952;28;20070;-50
2022/09/02 02:49:26;;;;;;;3.63;2.58;;;12.20;99.90;;;11.83;100.00;97260.78;4973070;28;20035;-47
2022/09/02 02:51:52;;;;;;;3.28;2.50;;;12.20;99.90;;;11.81;100.00;97259.16;4974463;28;20042;-49
2022/09/02 02:54:19;;;;;;;4.05;2.72;;;12.20;99.90;;;11.80;100.00;97260.91;4972710;28;20029;-50
2022/09/02 02:56:45;;;;;;;3.45;2.40;;;12.20;99.90;;;11.77;100.00;97258.44;4973467;28;20121;-47
2022/09/02 02:59:11;;;;;;;2.35;2.08;;;12.10;99.90;;;11.75;100.00;97260.25;4973810;28;20033;-48
2022/09/02 03:01:37;;;;;;;2.50;2.20;;;12.10;99.90;;;11.71;100.00;97252.56;4973676;28;20034;-49
2022/09/02 03:04:03;;;;;;;3.70;2.63;;;12.10;99.90;;;11.73;100.00;97250.69;4970771;28;20315;-48
2022/09/02 03:06:29;;;;;;;3.90;2.90;;;12.10;99.90;;;11.71;100.00;97257.84;4970375;28;20030;-48
2022/09/02 03:08:56;;;;;;;4.00;2.80;;;12.10;99.90;;;11.69;100.00;97255.25;4977826;28;20062;-50
2022/09/02 03:11:23;;;;;;;3.40;2.67;;;12.00;99.90;;;11.72;100.00;97256.91;4973562;28;20038;-49
2022/09/02 03:13:49;;;;;;;3.53;2.50;;;12.00;99.90;;;11.70;100.00;97251.72;4963143;28;20075;-49
2022/09/02 03:16:17;;;;;;;4.30;2.92;;;12.00;99.90;;;11.68;100.00;97263.25;4972684;28;20037;-50
2022/09/02 03:18:42;;;;;;;3.10;2.40;;;12.00;99.90;;;11.64;100.00;97259.88;4971499;28;21264;-50
2022/09/02 03:21:09;;;;;;;3.50;2.50;;;12.00;99.90;;;11.60;100.00;97258.31;4967148;28;20367;-49
2022/09/02 03:23:34;;;;;;;4.28;2.90;;;12.00;99.90;;;11.59;100.00;97257.44;4971288;28;20116;-51
2022/09/02 03:26:00;;;;;;;2.80;2.50;;;11.90;99.90;;;11.57;100.00;97253.16;4970072;28;20029;-51
2022/09/02 03:28:26;;;;;;;4.97;3.00;;;11.90;99.90;;;11.51;100.00;97256.91;4972645;28;20037;-48
2022/09/02 03:30:51;;;;;;;3.95;2.80;;;11.90;99.90;;;11.48;100.00;97250.91;4971076;28;20487;-51
2022/09/02 03:33:17;;;;;;;4.05;3.03;;;11.90;99.90;;;11.42;100.00;97247.59;4971381;28;20108;-50
2022/09/02 03:35:44;;;;;;;3.83;2.85;;;11.80;99.90;;;11.39;100.00;97245.09;4975220;28;20053;-48
2022/09/02 03:38:11;;;;;;;3.28;2.60;;;11.80;99.90;;;11.39;100.00;97249.50;4971317;28;20030;-47
2022/09/02 03:40:38;;;;;;;4.85;3.03;;;11.70;99.90;;;11.34;100.00;97256.75;4969799;28;20200;-47
2022/09/02 03:43:04;;;;;;;6.80;3.33;;;11.70;99.90;;;11.12;100.00;97219.88;4969312;28;20932;-48
2022/09/02 03:45:30;;;;;;;3.38;2.75;;;11.70;99.90;;;11.27;100.00;97254.41;4969253;28;20046;-48
2022/09/02 03:47:57;;;;;;;4.80;2.78;;;11.70;99.90;;;11.24;100.00;97246.59;4980340;28;20066;-47
2022/09/02 03:50:30;;;;;;;3.63;2.70;;;11.60;99.90;;;11.24;100.00;97243.09;4970953;28;20034;-50
2022/09/02 03:52:58;;;;;;;3.75;2.67;;;11.60;99.90;;;11.20;100.00;97252.94;4976574;28;20506;-49
2022/09/02 03:55:25;;;;;;;3.15;2.85;;;11.60;99.90;;;11.19;100.00;97251.22;4966637;28;20796;-49
2022/09/02 03:57:51;;;;;;;4.82;3.30;;;11.60;99.90;;;11.18;100.00;97249.50;4972855;28;20065;-52
2022/09/02 04:00:22;;;;;;;3.53;2.72;;;11.60;99.90;;;11.17;100.00;97255.69;4966668;28;20092;-49
2022/09/02 04:02:50;;;;;;;3.80;2.80;;;11.50;99.90;;;11.14;100.00;97247.03;4973241;28;20084;-50
2022/09/02 04:05:16;;;;;;;4.40;3.17;;;11.50;99.90;;;11.13;100.00;97242.72;4976587;28;20045;-52
2022/09/02 04:07:43;;;;;;;7.70;3.28;;;11.50;99.90;;;11.15;100.00;97254.91;4979268;28;20038;-51
2022/09/02 04:10:10;;;;;;;4.72;3.28;;;11.50;99.90;;;11.16;100.00;97255.75;4965803;28;20030;-51
2022/09/02 04:12:37;;;;;;;3.78;3.13;;;11.50;99.90;;;11.13;100.00;97245.34;4977949;28;20049;-50
2022/09/02 04:15:05;;;;;;;7.53;3.47;;;11.50;99.90;;;11.15;100.00;97249.63;4979581;28;20030;-51
2022/09/02 04:17:30;;;;;;;5.50;3.13;;;11.50;99.90;;;11.14;100.00;97254.97;4974789;28;20133;-51
2022/09/02 04:19:56;;;;;;;4.93;3.05;;;11.50;99.90;;;11.13;100.00;97250.63;4974923;28;20033;-52
2022/09/02 04:22:22;;;;;;;4.00;3.00;;;11.50;99.90;;;11.10;100.00;97253.38;4979644;28;20085;-48
2022/09/02 04:24:48;;;;;;;3.67;3.20;;;11.50;99.90;;;11.02;100.00;97245.78;4979901;28;20434;-50
2022/09/02 04:27:14;;;;;;;4.45;3.00;;;11.50;99.90;;;11.09;100.00;97255.16;4979132;28;20510;-48
2022/09/02 04:29:39;;;;;;;4.28;3.00;;;11.50;99.90;;;11.10;100.00;97256.03;4977505;28;20038;-48
2022/09/02 04:32:05;;;;;;;3.40;2.85;;;11.50;99.90;;;11.06;100.00;97242.94;4978095;28;20505;-49
2022/09/02 04:34:31;;;;;;;3.78;3.00;;;11.50;99.90;;;11.05;100.00;97243.00;4964755;28;20037;-51
2022/09/02 04:36:57;;;;;;;3.55;2.90;;;11.40;99.90;;;11.04;100.00;97236.03;4964635;28;20039;-48
2022/09/02 04:39:22;;;;;;;4.43;2.97;;;11.40;99.90;;;11.03;100.00;97236.94;4969168;28;20042;-49
2022/09/02 04:41:48;;;;;;;5.03;3.20;;;11.40;99.90;;;10.90;100.00;97223.41;4967413;28;20034;-51
2022/09/02 04:44:14;;;;;;;6.60;3.00;;;11.40;99.90;;;11.03;100.00;97245.69;4968200;28;20058;-52
2022/09/02 04:46:39;;;;;;;3.65;2.72;;;11.40;99.90;;;11.01;100.00;97241.41;4967934;28;20034;-49
2022/09/02 04:49:05;;;;;;;4.32;2.53;;;11.40;99.90;;;11.01;100.00;97238.78;4978217;28;20037;-50
2022/09/02 04:51:31;;;;;;;4.60;3.13;;;11.40;99.90;;;11.01;100.00;97241.41;4970807;28;20897;-48
2022/09/02 04:53:57;;;;;;;4.63;2.80;;;11.40;99.90;;;11.01;100.00;97238.78;4966129;28;20084;-52
2022/09/02 04:56:26;;;;;;;3.92;3.10;;;11.40;99.90;;;11.02;100.00;97241.38;4965125;28;20392;-52
2022/09/02 04:58:53;;;;;;;4.05;3.08;;;11.40;99.90;;;11.00;100.00;97240.56;4963551;28;20517;-51
2022/09/02 05:01:24;;;;;;;3.75;2.58;;;11.40;99.90;;;11.04;100.00;97249.22;4964401;28;20046;-51
2022/09/02 05:03:50;;;;;;;3.55;2.78;;;11.40;99.90;;;11.03;100.00;97240.44;4970074;28;21631;-49
2022/09/02 05:06:21;;;;;;;4.35;3.00;;;11.40;99.90;;;11.04;100.00;97244.78;4967768;28;20034;-48
2022/09/02 05:08:47;;;;;;;3.80;3.00;;;11.40;99.90;;;11.06;100.00;97239.47;4963102;28;20054;-51
2022/09/02 05:11:20;;;;;;;4.05;2.90;;;11.50;99.90;;;11.06;100.00;97240.31;4971388;28;20027;-48
2022/09/02 05:13:50;;;;;;;3.00;2.60;;;11.50;99.90;;;11.08;100.00;97248.16;4971551;28;20117;-50
2022/09/02 05:16:17;;;;;;;4.35;3.03;;;11.50;99.90;;;11.10;100.00;97248.97;4972655;28;20029;-47
2022/09/02 05:18:43;;;;;;;4.82;2.75;;;11.50;99.90;;;11.11;100.00;97248.03;4976079;28;21022;-49
2022/09/02 05:21:09;;;;;;;5.20;3.00;;;11.50;99.90;;;11.11;100.00;97239.25;4981984;28;20038;-48
2022/09/02 05:23:35;;;;;;;4.53;3.03;;;11.50;99.90;;;11.12;100.00;97247.09;4980337;28;20522;-49
2022/09/02 05:26:05;;;;;;;3.85;3.30;;;11.50;99.90;;;11.16;100.00;97246.06;4982349;28;20018;-49
2022/09/02 05:28:31;;;;;;;4.72;2.60;;;11.50;99.90;;;11.19;100.00;97255.63;4980477;28;20045;-48
2022/09/02 05:31:06;;;;;;;3.83;2.50;;;11.60;99.90;;;11.24;100.00;97249.25;4962989;28;20034;-51
2022/09/02 05:33:37;;;;;;;2.90;2.55;;;11.60;99.90;;;11.31;100.00;97246.34;4977543;28;20488;-51
2022/09/02 05:36:04;;;;;;;4.07;2.85;;;11.70;99.90;;;11.38;100.00;97255.72;4963546;28;20041;-47
2022/09/02 05:38:31;;;;;;;3.65;2.60;;;11.80;99.90;;;11.43;100.00;97241.41;4978120;28;20026;-52
2022/09/02 05:40:58;;;;;;;3.78;2.55;;;11.80;99.90;;;11.47;100.00;97244.78;4980689;28;20275;-50
2022/09/02 05:43:24;;;;;;;4.57;2.55;;;11.90;99.90;;;11.54;100.00;97238.31;4959003;28;20030;-49
2022/09/02 05:45:50;;;;;;;4.10;2.55;;;12.00;99.90;;;11.64;100.00;97255.44;4978003;28;20076;-48
2022/09/02 05:51:04;;;;;;;4.00;2.78;;;12.10;99.90;;;11.79;100.00;97237.19;4976858;28;20407;-52
2022/09/02 05:53:31;;;;;;;3.08;2.60;;;12.20;99.90;;;11.93;100.00;97245.41;4963232;28;20042;-50
2022/09/02 05:55:57;;;;;;;3.42;2.83;;;12.30;99.90;;;11.99;100.00;97246.94;4981811;28;20018;-47
2022/09/02 05:58:23;;;;;;;5.22;2.67;;;12.40;99.90;;;12.10;100.00;97247.31;4980577;28;20037;-51
2022/09/02 06:00:49;;;;;;;4.55;2.70;;;12.50;99.90;;;12.17;100.00;97245.25;4979413;28;20034;-51
2022/09/02 06:03:18;;;;;;;3.72;2.78;;;12.60;99.90;;;12.26;100.00;97246.59;4980643;28;20494;-48
2022/09/02 06:05:55;;;;;;;5.03;2.70;;;12.60;99.90;;;12.40;100.00;97250.31;4985310;28;20026;-48
2022/09/02 06:08:20;;;;;;;3.50;2.83;;;12.80;99.90;;;12.47;100.00;97245.63;4967878;28;20251;-47
2022/09/02 06:10:46;;;;;;;3.33;2.75;;;12.90;99.90;;;12.60;100.00;97246.75;4984300;28;20195;-49
2022/09/02 06:13:12;;;;;;;3.85;3.05;;;13.00;99.90;;;12.70;100.00;97252.44;4982107;28;20442;-51
2022/09/02 06:15:45;;;;;;;4.65;2.67;;;13.10;99.90;;;12.80;100.00;97253.72;4982711;28;20034;-47
2022/09/02 06:18:11;;;;;;;4.57;2.80;;;13.20;99.90;;;12.87;100.00;97248.16;4984628;28;20034;-50
2022/09/02 06:20:42;;;;;;;4.43;2.65;;;13.30;99.90;;;12.98;100.00;97251.97;4980215;28;20199;-50
2022/09/02 06:23:08;;;;;;;2.97;2.50;;;13.40;99.90;;;13.08;100.00;97247.09;4980889;28;20034;-51
2022/09/02 06:25:38;;;;;;;4.15;2.90;;;13.50;99.90;;;13.14;100.00;97249.41;4979887;28;20030;-49
2022/09/02 06:28:04;;;;;;;3.65;2.75;;;13.60;99.90;;;13.24;100.00;97251.59;4975262;28;20049;-50
2022/09/02 06:30:31;;;;;;;4.90;2.50;;;13.60;99.90;;;13.38;100.00;97243.84;4977920;28;20072;-48
2022/09/02 06:32:56;;;;;;;3.50;2.58;;;13.70;99.90;;;13.42;100.00;97239.25;4977842;28;20037;-48
2022/09/02 06:35:22;;;;;;;3.08;2.53;;;13.80;99.90;;;13.53;100.00;97244.84;4980067;28;20030;-47
2022/09/02 06:37:48;;;;;;;5.03;2.42;;;13.90;99.90;;;13.60;100.00;97243.59;4978402;28;20368;-49
2022/09/02 06:40:15;;;;;;;3.30;2.20;;;14.00;99.90;;;13.68;100.00;97251.19;4979519;28;20030;-49
2022/09/02 06:42:41;;;;;;;4.68;2.30;;;14.10;99.90;;;13.75;100.00;97244.63;4981435;28;20046;-48
2022/09/02 06:45:07;;;;;;;4.68;2.28;;;14.10;99.90;;;13.82;100.00;97253.09;4982324;28;20034;-49
2022/09/02 06:47:33;;;;;;;7.80;2.67;;;14.20;99.90;;;13.90;100.00;97257.06;4973059;28;20030;-48
2022/09/02 06:49:59;;;;;;;6.00;2.95;;;14.30;99.90;;;13.94;100.00;97250.69;4981004;28;20045;-48
2022/09/02 06:52:26;;;;;;;7.68;2.80;;;14.40;99.90;;;14.05;100.00;97249.22;4979398;28;20037;-51
2022/09/02 06:54:53;;;;;;;3.30;2.58;;;14.50;99.90;;;14.12;100.00;97253.25;4974878;28;20061;-50
2022/09/02 06:57:19;;;;;;;3.67;2.45;;;14.50;99.90;;;14.18;100.00;97250.31;4975188;28;20022;-49
2022/09/02 06:59:46;;;;;;;3.35;2.60;;;14.60;99.90;;;14.25;100.00;97251.69;4978788;28;20224;-48
2022/09/02 07:02:12;;;;;;;4.50;2.55;;;14.70;99.90;;;14.32;100.00;97249.56;4976687;28;20034;-51
2022/09/02 07:07:24;;;;;;;8.10;2.90;;;14.80;99.90;;;14.56;99.66;97249.16;4965277;28;20041;-47
2022/09/02 07:09:51;;;;;;;3.70;2.47;;;14.90;99.90;;;14.60;100.00;97246.25;4975682;28;20076;-48
2022/09/02 07:12:18;;;;;;;3.40;2.38;;;15.00;99.90;;;14.68;99.42;97248.50;4975433;28;20041;-48
2022/09/02 07:14:44;;;;;;;4.90;2.80;;;15.10;99.90;;;14.76;99.79;97242.75;4977525;28;20035;-50
2022/09/02 07:17:20;;;;;;;5.38;2.90;;;15.20;99.90;;;14.86;98.19;97252.78;4977470;28;20072;-50
2022/09/02 07:19:47;;;;;;;5.35;2.40;;;15.20;99.90;;;14.93;97.03;97236.47;4944490;28;20469;-50
2022/09/02 07:22:13;;;;;;;5.70;2.67;;;15.30;99.90;;;14.97;96.23;97236.22;4979355;28;20109;-50
2022/09/02 07:24:39;;;;;;;5.47;2.30;;;15.40;99.90;;;15.04;95.28;97234.09;4982150;28;20066;-49
2022/09/02 07:27:06;;;;;;;3.20;2.47;;;15.40;99.90;;;15.16;92.75;97232.50;4981546;28;20703;-48
2022/09/02 07:29:33;;;;;;;4.95;2.47;;;15.50;99.90;;;15.28;92.20;97229.13;4979710;28;20116;-49
2022/09/02 07:31:59;;;;;;;3.55;2.33;;;15.60;99.90;;;15.49;92.06;97231.47;4975045;28;20026;-48
2022/09/02 07:34:25;;;;;;;2.97;2.13;;;15.80;99.90;;;15.58;91.32;97238.91;4970289;28;20712;-49
2022/09/02 07:36:51;;;;;;;3.58;2.40;;;16.00;99.90;;;15.75;90.73;97233.44;4975221;28;20140;-49
2022/09/02 07:39:18;;;;;;;3.33;2.22;;;16.10;99.90;;;15.83;88.84;97223.22;4973040;28;20510;-49
2022/09/02 07:41:48;;;;;;;3.17;2.33;;;16.20;99.90;;;16.04;87.90;97238.78;4972888;28;20022;-47
2022/09/02 07:44:15;;;;;;;3.72;2.70;;;16.30;99.90;;;16.15;86.31;97231.03;4977359;28;20057;-50
2022/09/02 07:46:41;;;;;;;3.20;2.13;;;16.50;99.90;;;16.16;85.37;97213.25;4977061;28;20031;-47
2022/09/02 07:49:10;;;;;;;2.72;2.10;;;16.60;99.90;;;16.37;86.35;97233.19;4970331;28;20029;-51
2022/09/02 07:51:40;;;;;;;3.65;1.88;;;16.70;99.90;;;16.51;85.90;97239.44;4953708;28;20034;-51
2022/09/02 07:54:09;;;;;;;3.72;2.33;;;16.70;99.90;;;16.56;84.63;97227.56;4970462;28;20082;-50
2022/09/02 07:56:34;;;;;;;2.90;2.08;;;16.90;99.90;;;16.68;83.92;97225.06;4952358;28;20030;-47
2022/09/02 07:59:01;;;;;;;4.72;2.17;;;17.00;99.90;;;16.79;82.94;97225.22;4971064;28;20039;-49
2022/09/02 08:01:27;;;;;;;3.20;2.13;;;17.10;99.90;;;16.94;82.45;97224.25;4970978;28;20100;-49
2022/09/02 08:03:53;;;;;;;3.40;2.10;;;17.20;99.90;;;17.06;81.02;97219.06;4972396;28;20042;-48
2022/09/02 08:06:22;;;;;;;3.08;2.13;;;17.30;99.90;;;17.19;79.96;97230.59;4963829;28;20043;-49
2022/09/02 08:08:48;;;;;;;2.60;1.95;;;17.40;99.90;;;17.31;78.53;97224.47;4982154;28;20122;-52
2022/09/02 08:11:14;;;;;;;3.17;1.90;;;17.50;99.90;;;17.44;80.71;97228.97;4983434;28;20433;-50
2022/09/02 08:13:39;;;;;;;2.97;1.95;;;17.60;99.90;;;17.57;79.68;97221.88;4982764;28;20026;-51
2022/09/02 08:16:05;;;;;;;3.17;2.20;;;17.80;99.90;;;17.72;75.88;97233.28;4980711;28;20577;-50
2022/09/02 08:18:32;;;;;;;3.08;1.90;;;17.90;99.90;;;17.65;77.63;97219.50;4983403;28;20169;-50
2022/09/02 08:20:58;;;;;;;4.75;1.50;;;18.00;99.90;;;17.80;75.32;97230.09;5002271;23;20223;-63
2022/09/02 08:23:24;;;;;;;1.98;1.55;;;18.00;99.90;;;17.89;73.57;97238.34;4980591;28;20320;-63
2022/09/02 08:25:50;;;;;;;2.22;1.58;;;18.10;99.90;;;18.01;74.46;97231.28;4996480;28;20029;-64
2022/09/02 08:28:16;;;;;;;5.55;1.38;;;18.20;99.90;;;18.07;72.07;97222.88;5000914;28;20037;-64
2022/09/02 08:30:41;;;;;;;4.22;1.50;;;18.30;99.90;;;18.23;67.89;97235.13;4990269;28;20410;-64
2022/09/02 08:33:07;;;;;;;1.70;1.33;;;18.40;99.90;;;18.26;71.40;97243.78;4990061;28;20304;-63
2022/09/02 08:35:33;;;;;;;1.60;1.27;;;18.40;99.90;;;18.27;70.39;97232.16;4990721;28;20035;-64
2022/09/02 08:38:00;;;;;;;2.33;1.60;;;18.50;99.90;;;18.26;64.58;97238.44;4990518;28;20022;-64
2022/09/02 08:40:36;;;;;;;2.72;1.70;;;18.50;99.90;;;18.30;65.76;97233.72;4989703;28;20121;-63
2022/09/02 08:43:36;;;;;;;3.00;1.40;;;18.50;99.90;;;18.45;67.29;97232.66;4972141;28;20081;-63
2022/09/02 08:46:03;;;;;;;6.03;1.60;;;18.60;99.90;;;18.59;69.39;97225.47;4987497;28;20051;-63
2022/09/02 08:48:39;;;;;;;2.15;1.35;;;18.80;99.90;;;18.66;63.34;97224.94;4988664;28;20034;-63
2022/09/02 08:51:47;;;;;;;2.50;1.50;;;18.80;99.90;;;18.75;63.29;97228.72;4987600;28;20049;-63
2022/09/02 08:54:44;;;;;;;2.85;1.23;;;18.90;99.90;;;18.80;60.54;97226.56;4906338;29;20039;-63
2022/09/02 08:57:10;;;;;;;1.63;1.13;;;19.00;99.90;;;18.89;62.38;97219.72;4970847;28;20264;-63
2022/09/02 08:59:37;;;;;;;3.20;1.08;;;19.10;99.90;;;18.96;59.03;97220.16;4967857;28;20402;-64
2022/09/02 09:02:31;;;;;;;1.60;1.13;;;19.10;99.90;;;19.02;59.25;97219.69;4972997;28;20053;-63
2022/09/02 09:05:16;;;;;;;2.22;1.40;;;19.20;99.90;;;19.01;56.65;97218.84;4981431;28;20026;-63
2022/09/02 09:08:03;;;;;;;2.80;1.20;;;19.20;99.90;;;18.99;54.73;97207.41;4989288;28;20030;-63
2022/09/02 09:10:55;;;;;;;1.38;1.10;;;19.20;99.90;;;19.04;57.56;97215.06;4985189;28;20089;-65
2022/09/02 09:13:49;;;;;;;1.50;1.17;;;19.20;99.90;;;19.09;57.19;97215.56;4985603;28;20482;-64
2022/09/02 09:16:37;;;;;;;1.27;1.10;;;19.30;99.90;;;19.19;56.68;97213.09;4971330;28;20038;-64
2022/09/02 09:19:22;;;;;;;2.05;1.40;;;19.40;99.90;;;19.25;57.28;97210.78;4966945;28;21239;-64
2022/09/02 09:21:48;;;;;;;2.30;1.30;;;19.40;99.90;;;19.29;55.30;97200.75;4967491;28;20513;-64
2022/09/02 09:24:38;;;;;;;2.75;1.27;;;19.50;99.70;;;19.39;55.66;97208.91;4988901;28;20049;-64
2022/09/02 09:27:11;;;;;;;2.42;1.23;;;19.50;99.90;;;19.38;54.44;97200.03;4969794;28;20110;-64
2022/09/02 09:29:37;;;;;;;1.63;1.23;;;19.60;98.90;;;19.42;54.28;97201.50;4985569;28;20052;-64
2022/09/02 09:32:25;;;;;;;2.90;1.20;;;19.60;98.70;;;19.46;53.81;97199.44;4988037;28;20483;-64
2022/09/02 09:34:51;;;;;;;2.13;1.20;;;19.60;98.60;;;19.52;54.15;97196.28;4966364;28;20026;-64
2022/09/02 09:37:39;;;;;;;2.75;1.35;;;19.70;98.50;;;19.56;51.94;97195.13;4988472;28;20033;-64
2022/09/02 09:40:27;;;;;;;1.67;1.15;;;19.70;97.60;;;19.61;51.25;97187.59;4989596;28;20042;-63
2022/09/02 09:43:04;;;;;;;1.70;1.20;;;19.80;96.90;;;19.72;50.47;97202.81;4990550;28;20490;-63
2022/09/02 09:45:48;;;;;;;1.40;1.00;;;19.90;96.10;;;19.73;50.28;97188.47;4987634;28;20395;-63
2022/09/02 09:48:16;;;;;;;3.08;1.40;;;19.90;95.60;;;19.79;50.43;97196.06;4978598;28;20441;-63
2022/09/02 09:50:48;;;;;;;4.70;1.23;;;19.90;95.70;;;19.82;50.51;97192.28;4982382;28;20034;-63
2022/09/02 09:53:19;;;;;;;1.17;0.90;;;20.00;96.00;;;19.91;49.36;97191.56;4988685;28;20046;-63
2022/09/02 09:56:04;;;;;;;1.50;1.00;;;20.10;95.00;;;19.96;50.31;97188.53;4985140;28;20514;-63
2022/09/02 09:58:38;;;;;;;2.10;1.20;;;20.10;95.70;;;20.03;49.34;97187.06;4970403;28;20080;-63
2022/09/02 10:01:33;;;;;;;6.45;1.88;;;20.20;94.70;;;20.06;48.62;97184.13;4987815;28;20038;-63
2022/09/02 10:04:03;;;;;;;2.85;1.25;;;20.20;94.40;;;20.08;47.66;97181.34;4968246;28;20042;-63
2022/09/02 10:06:29;;;;;;;1.77;1.10;;;20.30;93.40;;;20.13;47.44;97180.00;4982494;28;20042;-63
2022/09/02 10:09:18;;;;;;;1.60;1.20;;;20.30;93.40;;;20.17;49.00;97175.25;4988119;28;20067;-63
2022/09/02 10:12:06;;;;;;;2.10;1.10;;;20.30;93.80;;;20.29;49.63;97168.06;4976981;28;20238;-63
2022/09/02 10:14:45;;;;;;;1.45;1.00;;;20.40;94.60;;;20.43;48.48;97173.19;4987668;28;20049;-63
2022/09/02 10:17:35;;;;;;;1.55;1.10;;;20.50;94.40;;;20.46;47.67;97170.25;4984804;28;20034;-64
2022/09/02 10:20:14;;;;;;;1.00;0.90;;;20.60;92.80;;;20.50;44.87;97149.44;4984841;28;20026;-58
2022/09/02 10:23:02;;;;;;;1.65;1.00;;;20.60;91.00;;;20.58;44.83;97168.41;4981877;28;20561;-64
2022/09/02 10:25:58;;;;;;;4.43;1.35;;;20.70;90.60;;;20.63;44.36;97166.22;4986366;28;20026;-64
2022/09/02 10:28:55;;;;;;;1.30;0.95;;;20.80;90.40;;;20.69;43.94;97165.75;4975574;28;20037;-65
2022/09/02 10:31:51;;;;;;;2.20;0.98;;;20.80;89.60;;;20.77;44.49;97160.59;4981763;28;20027;-63